Time;durP1;ratioP1;P1;durP2;ratioP2;P2;SDS_P1;SDS_P2;PMS_P1;PMS_P2;Temp;Humidity;BMP_temperature;BMP_pressure;BME280_temperature;BME280_humidity;BME280_pressure;Samples;Min_cycle;Max_cycle;Signal;HPM_P1;HPM_P2
2021/01/03 00:00:32;;;;;;;;;27.75;27.75;;;;;7.62;69.09;102873.44;4371613;32;12408;-72
2021/01/03 00:03:28;;;;;;;;;37.00;34.75;;;;;7.65;68.48;102872.06;4371905;32;12432;-72
2021/01/03 00:06:24;;;;;;;;;28.00;27.00;;;;;7.63;68.87;102874.25;4370093;32;12451;-72
2021/01/03 00:09:20;;;;;;;;;40.00;38.75;;;;;7.66;68.74;102879.25;4365514;32;12451;-72
2021/01/03 00:12:03;;;;;;;;;32.50;32.50;;;;;7.59;69.05;102884.97;4374911;32;12421;-72
2021/01/03 00:14:59;;;;;;;;;28.50;27.75;;;;;7.57;68.56;102878.03;4374069;32;12418;-72
2021/01/03 00:17:54;;;;;;;;;31.75;31.75;;;;;7.63;68.42;102882.53;4376028;32;13109;-72
2021/01/03 00:20:50;;;;;;;;;27.50;27.00;;;;;7.61;68.53;102895.72;4375671;32;12511;-72
2021/01/03 00:23:45;;;;;;;;;34.00;34.00;;;;;7.40;68.80;102891.88;4366172;32;12420;-72
2021/01/03 00:26:14;;;;;;;;;32.75;32.75;;;;;7.51;69.02;102894.53;4377141;32;12425;-72
2021/01/03 00:29:10;;;;;;;;;38.00;38.00;;;;;7.56;69.30;102890.16;4374180;32;12490;-72
2021/01/03 00:32:06;;;;;;;;;31.50;31.50;;;;;7.46;69.62;102888.94;4364960;32;12573;-72
2021/01/03 00:34:33;;;;;;;;;38.50;36.00;;;;;7.57;69.34;102889.06;4374887;32;12388;-72
2021/01/03 00:37:29;;;;;;;;;27.50;27.50;;;;;7.55;69.56;102892.06;4360293;32;12442;-72
2021/01/03 00:40:25;;;;;;;;;33.25;31.50;;;;;7.45;69.05;102889.19;4371346;32;12420;-72
2021/01/03 00:43:20;;;;;;;;;37.25;36.50;;;;;7.50;69.60;102894.75;4351630;32;12493;-72
2021/01/03 00:46:16;;;;;;;;;43.50;41.00;;;;;7.39;69.83;102888.31;4382241;32;11944;-72
2021/01/03 00:48:43;;;;;;;;;38.50;38.50;;;;;7.52;69.66;102879.66;4368648;32;12394;-72
2021/01/03 00:51:39;;;;;;;;;39.50;37.75;;;;;7.56;69.85;102879.12;4368138;32;12455;-73
2021/01/03 00:54:20;;;;;;;;;44.75;41.75;;;;;7.66;69.04;102870.97;4362780;32;12443;-73
2021/01/03 00:56:49;;;;;;;;;45.75;43.00;;;;;7.60;69.38;102875.62;4367999;32;13078;-72
2021/01/03 00:59:44;;;;;;;;;39.00;37.25;;;;;7.62;69.36;102880.87;4373590;32;12642;-72
2021/01/03 01:02:34;;;;;;;;;32.25;32.25;;;;;7.58;69.50;102872.28;4379866;32;12402;-72
2021/01/03 01:05:30;;;;;;;;;33.75;31.00;;;;;7.70;69.18;102878.47;4364312;32;12497;-72
2021/01/03 01:08:26;;;;;;;;;31.75;31.75;;;;;7.45;69.34;102876.28;4362517;32;12523;-72
2021/01/03 01:11:24;;;;;;;;;33.00;31.75;;;;;7.55;69.19;102877.47;4368054;32;12410;-72
2021/01/03 01:14:20;;;;;;;;;37.00;33.00;;;;;7.62;69.20;102876.19;4373359;32;12699;-72
2021/01/03 01:16:47;;;;;;;;;35.50;32.00;;;;;7.60;69.66;102883.87;4370265;32;12414;-72
2021/01/03 01:19:15;;;;;;;;;31.75;30.50;;;;;7.56;69.65;102876.38;4372857;32;12411;-73
2021/01/03 01:22:10;;;;;;;;;31.75;30.00;;;;;7.61;69.62;102879.19;4373888;32;12412;-72
2021/01/03 01:24:39;;;;;;;;;27.75;27.75;;;;;7.52;69.76;102867.81;4370761;32;12390;-73
2021/01/03 01:27:15;;;;;;;;;29.75;29.75;;;;;7.59;69.46;102876.72;4373124;32;13090;-72
2021/01/03 01:29:42;;;;;;;;;30.50;30.25;;;;;7.57;69.16;102876.12;4357077;32;12417;-72
2021/01/03 01:32:38;;;;;;;;;30.00;29.25;;;;;7.61;69.06;102879.19;4368155;32;12467;-72
2021/01/03 01:35:35;;;;;;;;;34.00;34.00;;;;;7.62;69.06;102878.09;4353812;32;13128;-73
2021/01/03 01:38:19;;;;;;;;;32.00;31.25;;;;;7.59;69.45;102882.22;4372911;32;13093;-73
2021/01/03 01:41:14;;;;;;;;;27.75;27.75;;;;;7.61;69.50;102881.97;4363453;32;12472;-72
2021/01/03 01:44:10;;;;;;;;;29.00;28.00;;;;;7.67;69.03;102880.94;4373966;32;13114;-73
2021/01/03 01:46:46;;;;;;;;;24.50;24.00;;;;;7.73;68.50;102888.13;4373733;32;12434;-72
2021/01/03 01:49:22;;;;;;;;;23.25;22.25;;;;;7.72;68.22;102878.22;4367831;32;12439;-72
2021/01/03 01:51:52;;;;;;;;;29.25;29.25;;;;;7.58;69.02;102875.03;4370489;32;12535;-72
2021/01/03 01:54:38;;;;;;;;;30.75;30.00;;;;;7.55;68.96;102877.47;4372925;32;12430;-73
2021/01/03 01:57:55;;;;;;;;;28.50;28.25;;;;;7.63;68.68;102886.09;4368092;32;13188;-73
2021/01/03 02:00:57;;;;;;;;;28.00;27.50;;;;;7.66;68.68;102877.31;4369472;32;12430;-73
2021/01/03 02:03:55;;;;;;;;;28.25;27.50;;;;;7.41;69.00;102871.53;4364869;32;12381;-73
2021/01/03 02:07:22;;;;;;;;;31.50;31.00;;;;;7.58;68.83;102876.94;4369965;32;12603;-73
2021/01/03 02:10:26;;;;;;;;;30.50;27.25;;;;;7.55;68.95;102878.31;4366673;32;12495;-72
2021/01/03 02:13:38;;;;;;;;;38.00;32.75;;;;;7.21;69.34;102880.38;4371226;32;12404;-73
2021/01/03 02:16:18;;;;;;;;;26.00;25.25;;;;;7.57;68.81;102886.31;4371807;32;12606;-73
2021/01/03 02:18:48;;;;;;;;;27.50;27.25;;;;;7.52;68.56;102887.91;4373554;32;13122;-73
2021/01/03 02:22:01;;;;;;;;;21.75;21.75;;;;;7.47;68.20;102885.09;4358939;32;12397;-72
2021/01/03 02:25:00;;;;;;;;;31.25;31.00;;;;;7.52;68.52;102876.91;4369108;32;12393;-73
2021/01/03 02:27:50;;;;;;;;;26.50;26.50;;;;;7.34;68.88;102885.47;4360661;32;12412;-72
2021/01/03 02:30:20;;;;;;;;;25.50;25.50;;;;;7.46;68.82;102888.94;4373403;32;12394;-72
2021/01/03 02:33:30;;;;;;;;;31.75;31.25;;;;;7.39;68.62;102888.31;4368763;32;12403;-72
2021/01/03 02:36:03;;;;;;;;;30.75;30.25;;;;;7.46;68.97;102880.69;4372102;32;12443;-73
2021/01/03 02:39:27;;;;;;;;;30.00;30.00;;;;;7.54;68.57;102882.16;4356563;32;12402;-73
2021/01/03 02:42:32;;;;;;;;;21.50;21.50;;;;;7.41;68.80;102883.38;4368185;32;12470;-72
2021/01/03 02:45:31;;;;;;;;;28.00;28.00;;;;;7.43;68.96;102880.34;4366423;32;12401;-73
2021/01/03 02:48:26;;;;;;;;;26.00;25.00;;;;;7.42;68.62;102885.03;4372684;32;12412;-73
2021/01/03 02:51:32;;;;;;;;;28.75;26.75;;;;;7.49;68.44;102891.16;4353991;32;12432;-73
2021/01/03 02:54:28;;;;;;;;;23.25;23.25;;;;;7.42;68.44;102878.69;4370453;32;12403;-72
2021/01/03 02:56:55;;;;;;;;;31.25;31.25;;;;;7.41;68.32;102880.59;4371123;32;12446;-72
2021/01/03 02:59:23;;;;;;;;;41.75;39.25;;;;;7.36;68.42;102871.44;4364091;32;12419;-73
2021/01/03 03:02:19;;;;;;;;;26.75;26.00;;;;;7.51;68.56;102875.25;4353232;32;12440;-73
2021/01/03 03:04:50;;;;;;;;;41.75;39.00;;;;;7.41;68.64;102868.75;4371770;32;12429;-73
2021/01/03 03:07:45;;;;;;;;;39.00;35.75;;;;;7.58;68.22;102876.94;4370638;32;12457;-73
2021/01/03 03:10:41;;;;;;;;;36.25;36.25;;;;;7.63;68.01;102869.59;4348188;32;13123;-72
2021/01/03 03:13:36;;;;;;;;;31.75;27.75;;;;;7.50;68.31;102870.81;4359774;32;13191;-73
2021/01/03 03:16:32;;;;;;;;;20.00;18.25;;;;;7.46;68.22;102869.66;4366209;32;12468;-72
2021/01/03 03:18:59;;;;;;;;;27.00;27.00;;;;;7.61;68.14;102881.97;4360428;32;12442;-72
2021/01/03 03:21:55;;;;;;;;;32.75;31.25;;;;;7.51;68.26;102877.13;4367115;32;12536;-73
2021/01/03 03:24:36;;;;;;;;;40.25;32.50;;;;;7.53;68.77;102881.31;4351945;32;12551;-73
2021/01/03 03:27:31;;;;;;;;;36.25;36.25;;;;;7.51;68.71;102877.13;4362241;32;12401;-73
2021/01/03 03:30:17;;;;;;;;;38.75;37.50;;;;;7.59;68.34;102878.59;4360254;32;12401;-72
2021/01/03 03:33:13;;;;;;;;;39.75;37.25;;;;;7.66;68.47;102874.56;4369345;32;12424;-74
2021/01/03 03:36:02;;;;;;;;;27.25;27.25;;;;;7.63;68.40;102880.59;4368631;32;13155;-73
2021/01/03 03:38:30;;;;;;;;;25.50;22.75;;;;;7.50;67.85;102886.50;4353644;32;12440;-73
2021/01/03 03:41:26;;;;;;;;;28.00;26.75;;;;;7.60;67.31;102883.06;4371864;32;12443;-73
2021/01/03 03:44:23;;;;;;;;;27.50;27.25;;;;;7.52;67.10;102890.69;4372164;32;12432;-73
2021/01/03 03:46:55;;;;;;;;;27.00;27.00;;;;;7.33;67.89;102899.50;4375919;32;13092;-73
2021/01/03 03:49:51;;;;;;;;;30.00;29.00;;;;;7.35;67.49;102906.41;4373141;32;12441;-73
2021/01/03 03:52:46;;;;;;;;;30.00;27.75;;;;;7.50;67.10;102898.34;4357935;32;12461;-72
2021/01/03 03:55:42;;;;;;;;;31.00;29.75;;;;;7.51;67.17;102904.69;4371637;32;12457;-76
2021/01/03 03:58:37;;;;;;;;;21.00;20.25;;;;;7.46;67.55;102921.16;4373640;32;12427;-73
2021/01/03 04:01:40;;;;;;;;;22.50;22.25;;;;;7.32;67.29;102912.44;4374700;32;12424;-72
2021/01/03 04:04:08;;;;;;;;;28.75;28.75;;;;;7.34;67.34;102912.16;4375520;32;12354;-73
2021/01/03 04:06:51;;;;;;;;;30.50;28.00;;;;;7.34;67.27;102906.66;4375340;32;12487;-72
2021/01/03 04:09:46;;;;;;;;;25.75;25.75;;;;;7.37;67.34;102907.00;4359578;32;12407;-72
2021/01/03 04:12:42;;;;;;;;;18.25;17.75;;;;;7.37;67.58;102908.94;4370920;32;12450;-73
2021/01/03 04:15:30;;;;;;;;;27.75;25.50;;;;;7.33;67.94;102905.84;4369656;32;12440;-73
2021/01/03 04:17:57;;;;;;;;;22.50;21.25;;;;;7.34;68.03;102918.50;4362125;32;12451;-72
2021/01/03 04:20:53;;;;;;;;;19.50;19.50;;;;;7.41;67.62;102912.81;4369561;32;12407;-73
2021/01/03 04:23:48;;;;;;;;;14.50;14.50;;;;;7.39;67.27;102913.06;4362016;32;12467;-73
2021/01/03 04:26:20;;;;;;;;;24.25;22.00;;;;;7.31;68.10;102921.78;4373678;32;12423;-73
2021/01/03 04:28:48;;;;;;;;;21.00;21.00;;;;;7.47;67.48;102918.13;4375338;32;12368;-73
2021/01/03 04:31:44;;;;;;;;;23.00;23.00;;;;;7.40;67.83;102914.75;4372570;32;12475;-73
2021/01/03 04:34:34;;;;;;;;;25.50;23.75;;;;;7.30;68.33;102916.53;4374244;32;12385;-73
2021/01/03 04:37:30;;;;;;;;;23.00;23.00;;;;;7.42;67.76;102914.47;4363244;32;12481;-73
2021/01/03 04:40:29;;;;;;;;;22.50;22.50;;;;;7.30;67.86;102919.28;4372885;32;12456;-73
2021/01/03 04:43:00;;;;;;;;;24.25;21.75;;;;;7.25;68.40;102929.13;4364756;32;12446;-73
2021/01/03 04:46:08;;;;;;;;;19.75;19.75;;;;;7.41;68.40;102938.44;4368035;32;12442;-73
2021/01/03 04:49:08;;;;;;;;;27.00;27.00;;;;;7.33;68.26;102933.38;4367216;32;12374;-75
2021/01/03 04:51:58;;;;;;;;;24.25;22.25;;;;;7.37;68.21;102929.03;4369374;32;12471;-73
2021/01/03 04:54:33;;;;;;;;;24.00;24.00;;;;;7.52;67.67;102936.66;4344366;32;12383;-74
2021/01/03 04:57:41;;;;;;;;;22.25;22.25;;;;;7.33;67.82;102933.38;4364160;32;13119;-73
2021/01/03 05:00:46;;;;;;;;;17.50;15.50;;;;;7.34;67.43;102931.44;4362971;32;13073;-73
2021/01/03 05:03:32;;;;;;;;;20.50;19.25;;;;;7.39;67.15;102928.78;4356349;32;12420;-73
2021/01/03 05:06:14;;;;;;;;;19.25;19.25;;;;;7.34;67.09;102926.75;4355895;32;12585;-73
2021/01/03 05:09:10;;;;;;;;;27.00;26.25;;;;;7.32;67.42;102928.94;4369746;32;12481;-73
2021/01/03 05:12:18;;;;;;;;;24.50;24.50;;;;;7.34;67.32;102935.03;4371794;32;12410;-73
2021/01/03 05:15:08;;;;;;;;;22.50;22.50;;;;;7.33;67.24;102930.59;4371478;32;12404;-73
2021/01/03 05:17:36;;;;;;;;;23.75;23.75;;;;;7.39;66.50;102928.78;4364638;32;12441;-73
2021/01/03 05:20:32;;;;;;;;;25.25;24.00;;;;;7.30;67.20;102939.38;4363839;32;12388;-73
2021/01/03 05:23:18;;;;;;;;;23.00;23.00;;;;;7.31;67.14;102934.72;4360867;32;12439;-73
2021/01/03 05:25:48;;;;;;;;;20.00;18.75;;;;;7.31;67.40;102941.06;4370909;32;12448;-73
2021/01/03 05:28:54;;;;;;;;;24.50;22.75;;;;;7.28;67.67;102932.44;4361390;32;12424;-73
2021/01/03 05:32:02;;;;;;;;;23.00;23.00;;;;;7.24;67.74;102927.47;4370304;32;12532;-73
2021/01/03 05:34:52;;;;;;;;;25.25;25.25;;;;;7.37;67.48;102931.78;4370377;32;12383;-73
2021/01/03 05:37:31;;;;;;;;;26.75;23.50;;;;;7.35;67.71;102925.66;4367889;32;12472;-72
2021/01/03 05:40:30;;;;;;;;;24.75;22.75;;;;;7.43;67.40;102929.91;4361340;32;13152;-73
2021/01/03 05:43:25;;;;;;;;;27.75;26.25;;;;;7.33;67.95;102935.28;4369187;32;12390;-73
2021/01/03 05:46:17;;;;;;;;;24.00;22.75;;;;;7.36;68.15;102932.00;4383656;32;12477;-74
2021/01/03 05:49:22;;;;;;;;;27.50;27.00;;;;;7.39;67.86;102932.34;4368423;32;12403;-73
2021/01/03 05:52:13;;;;;;;;;21.25;20.75;;;;;7.36;67.54;102929.25;4349449;32;12487;-74
2021/01/03 05:54:52;;;;;;;;;27.00;27.00;;;;;7.22;67.45;102931.56;4367851;32;12485;-73
2021/01/03 05:57:28;;;;;;;;;25.50;23.75;;;;;7.24;67.59;102929.38;4360975;32;12442;-73
2021/01/03 06:00:26;;;;;;;;;31.50;31.25;;;;;7.09;68.51;102932.75;4371728;32;12411;-73
2021/01/03 06:03:12;;;;;;;;;26.75;26.25;;;;;7.23;68.41;102936.81;4365702;32;12398;-73
2021/01/03 06:06:24;;;;;;;;;25.00;22.75;;;;;7.31;67.75;102941.06;4367861;32;12400;-73
2021/01/03 06:08:59;;;;;;;;;28.75;28.75;;;;;7.24;68.04;102934.91;4355948;32;12481;-72
2021/01/03 06:12:17;;;;;;;;;22.75;22.75;;;;;7.28;68.00;102940.72;4372920;32;12465;-73
2021/01/03 06:14:48;;;;;;;;;22.75;22.75;;;;;7.18;67.94;102947.75;4370478;32;13074;-73
2021/01/03 06:17:45;;;;;;;;;25.00;23.50;;;;;7.24;68.12;102951.41;4367333;32;12461;-73
2021/01/03 06:20:41;;;;;;;;;26.75;25.75;;;;;7.22;68.45;102948.09;4362500;32;12584;-73
2021/01/03 06:23:51;;;;;;;;;30.75;30.25;;;;;7.20;68.48;102944.72;4370957;32;12399;-72
2021/01/03 06:26:34;;;;;;;;;33.00;33.00;;;;;7.09;68.86;102945.69;4367378;32;12369;-73
2021/01/03 06:29:35;;;;;;;;;37.25;35.50;;;;;7.26;68.54;102943.72;4369153;32;12453;-73
2021/01/03 06:32:37;;;;;;;;;30.50;30.50;;;;;7.36;68.17;102945.78;4354786;32;12406;-72
2021/01/03 06:35:27;;;;;;;;;40.75;38.25;;;;;7.21;68.57;102940.91;4352555;32;12412;-72
2021/01/03 06:38:06;;;;;;;;;41.00;39.00;;;;;7.31;68.65;102945.72;4375472;32;12498;-72
2021/01/03 06:41:05;;;;;;;;;41.25;39.50;;;;;7.40;68.68;102945.03;4365804;32;12418;-72
2021/01/03 06:44:19;;;;;;;;;48.50;42.50;;;;;7.47;68.81;102948.44;4372243;32;12416;-72
2021/01/03 06:47:46;;;;;;;;;41.25;40.25;;;;;7.67;68.19;102949.78;4371837;32;12400;-73
2021/01/03 06:50:29;;;;;;;;;40.50;39.25;;;;;7.58;68.36;102954.06;4366049;32;12391;-72
2021/01/03 06:54:06;;;;;;;;;36.50;36.50;;;;;7.58;68.38;102948.56;4364265;32;11836;-73
2021/01/03 06:57:12;;;;;;;;;44.25;41.00;;;;;7.51;68.68;102938.59;4356874;32;13075;-74
2021/01/03 07:00:03;;;;;;;;;46.50;41.75;;;;;7.69;68.21;102953.13;4379691;32;12469;-73
2021/01/03 07:03:06;;;;;;;;;51.75;43.00;;;;;7.73;67.65;102940.47;4357948;32;12624;-73
2021/01/03 07:06:02;;;;;;;;;41.00;39.25;;;;;7.77;67.71;102947.16;4372700;32;12458;-73
2021/01/03 07:08:38;;;;;;;;;55.50;45.25;;;;;7.76;67.99;102948.25;4369389;32;12447;-72
2021/01/03 07:11:56;;;;;;;;;46.75;41.50;;;;;7.94;67.84;102944.31;4367782;32;12599;-73
2021/01/03 07:14:25;;;;;;;;;45.50;42.50;;;;;7.93;67.66;102943.47;4357271;32;12460;-73
2021/01/03 07:17:16;;;;;;;;;48.25;44.25;;;;;7.81;68.00;102945.53;4356665;32;12505;-73
2021/01/03 07:20:19;;;;;;;;;56.25;46.00;;;;;8.02;67.62;102950.19;4371559;32;12418;-73
2021/01/03 07:23:25;;;;;;;;;42.00;40.50;;;;;8.09;67.50;102942.56;4372895;32;12429;-74
2021/01/03 07:26:28;;;;;;;;;43.75;41.25;;;;;7.93;67.63;102937.97;4372549;32;12531;-74
2021/01/03 07:29:23;;;;;;;;;35.00;34.75;;;;;8.05;67.21;102944.19;4370737;32;12474;-73
2021/01/03 07:32:27;;;;;;;;;37.25;34.00;;;;;8.11;66.57;102946.97;4371129;32;13152;-73
2021/01/03 07:35:23;;;;;;;;;38.25;37.50;;;;;8.13;66.77;102950.28;4371643;32;12467;-73
2021/01/03 07:38:22;;;;;;;;;46.00;42.25;;;;;8.20;66.68;102954.50;4371039;32;12484;-73
2021/01/03 07:41:26;;;;;;;;;43.50;41.00;;;;;8.27;66.88;102951.56;4362888;32;12411;-73
2021/01/03 07:44:31;;;;;;;;;53.00;42.75;;;;;8.23;67.20;102950.41;4371570;32;12392;-73
2021/01/03 07:47:07;;;;;;;;;35.00;34.75;;;;;8.35;66.87;102946.41;4358793;32;12529;-73
2021/01/03 07:49:35;;;;;;;;;45.50;41.75;;;;;8.37;66.59;102950.88;4371975;32;12579;-73
2021/01/03 07:52:36;;;;;;;;;42.50;38.25;;;;;8.40;66.42;102953.91;4363047;32;12625;-73
2021/01/03 07:55:25;;;;;;;;;33.75;33.75;;;;;8.36;66.12;102969.34;4372309;32;12462;-73
2021/01/03 07:58:23;;;;;;;;;37.75;37.50;;;;;8.39;66.23;102959.72;4372443;32;12628;-72
2021/01/03 08:00:54;;;;;;;;;53.50;42.00;;;;;8.49;66.31;102963.38;4359531;32;12453;-73
2021/01/03 08:03:24;;;;;;;;;37.25;35.50;;;;;8.42;65.75;102964.69;4371705;32;12610;-74
2021/01/03 08:06:20;;;;;;;;;36.25;35.25;;;;;8.44;65.49;102957.00;4352424;32;12481;-73
2021/01/03 08:09:24;;;;;;;;;50.25;42.00;;;;;8.47;65.67;102959.22;4360741;32;12553;-75
2021/01/03 08:12:29;;;;;;;;;53.00;45.50;;;;;8.40;66.11;102953.09;4371394;32;12444;-75
2021/01/03 08:15:30;;;;;;;;;48.75;42.25;;;;;8.37;66.81;102954.47;4359768;32;12479;-74
2021/01/03 08:18:16;;;;;;;;;45.00;40.25;;;;;8.50;66.45;102961.44;4371309;32;12458;-74
2021/01/03 08:21:19;;;;;;;;;35.25;34.25;;;;;8.46;66.54;102960.31;4372604;32;12520;-74
2021/01/03 08:24:17;;;;;;;;;49.75;42.25;;;;;8.24;66.78;102966.69;4371701;32;12525;-75
2021/01/03 08:26:51;;;;;;;;;48.75;42.00;;;;;8.24;66.93;102963.94;4371991;32;12390;-76
2021/01/03 08:29:57;;;;;;;;;45.75;42.25;;;;;8.12;67.67;102965.16;4368497;32;12433;-74
2021/01/03 08:32:30;;;;;;;;;38.50;38.00;;;;;8.18;66.95;102969.66;4356951;32;13208;-75
2021/01/03 08:35:01;;;;;;;;;30.25;29.75;;;;;8.15;66.43;102971.00;4371298;32;13255;-75
2021/01/03 08:37:57;;;;;;;;;29.00;28.25;;;;;8.26;66.52;102970.00;4369094;32;12549;-75
2021/01/03 08:41:03;;;;;;;;;22.50;21.25;;;;;8.20;66.28;102967.47;4370345;32;12477;-74
2021/01/03 08:43:58;;;;;;;;;35.25;35.25;;;;;8.22;65.98;102971.66;4371301;32;12897;-75
2021/01/03 08:47:04;;;;;;;;;47.50;42.50;;;;;8.26;66.37;102971.94;4370904;32;12459;-75
2021/01/03 08:49:31;;;;;;;;;39.75;38.25;;;;;8.21;66.59;102969.16;4370967;32;13083;-76
2021/01/03 08:52:27;;;;;;;;;32.00;32.00;;;;;8.29;66.13;102975.03;4371185;32;12911;-74
2021/01/03 08:55:26;;;;;;;;;19.00;19.00;;;;;8.19;66.79;102966.63;4370423;32;12458;-74
2021/01/03 08:58:00;;;;;;;;;32.25;31.00;;;;;7.99;67.06;102969.19;4370440;32;12410;-75
2021/01/03 09:01:01;;;;;;;;;28.00;28.00;;;;;8.15;66.75;102970.19;4370775;32;12407;-75
2021/01/03 09:03:31;;;;;;;;;37.50;36.25;;;;;8.04;66.57;102959.03;4372008;32;12438;-75
2021/01/03 09:06:28;;;;;;;;;37.25;37.00;;;;;8.13;67.11;102959.44;4370940;32;12618;-74
2021/01/03 09:09:30;;;;;;;;;43.00;40.00;;;;;8.21;66.64;102958.13;4369189;32;12486;-74
2021/01/03 09:12:33;;;;;;;;;39.75;38.75;;;;;8.34;66.57;102954.94;4373248;32;12518;-73
2021/01/03 09:15:29;;;;;;;;;38.00;37.25;;;;;8.24;66.73;102946.56;4379925;32;12540;-73
2021/01/03 09:18:37;;;;;;;;;47.25;42.00;;;;;8.67;70.63;102944.81;4366994;32;12432;-72
2021/01/03 09:21:27;;;;;;;;;47.00;42.75;;;;;10.17;79.83;102946.94;4368356;32;13129;-72
2021/01/03 09:24:26;;;;;;;;;41.75;39.50;;;;;10.41;76.79;102942.59;4373258;32;12496;-73
2021/01/03 09:27:28;;;;;;;;;38.25;36.25;;;;;10.14;70.94;102941.97;4372561;32;13084;-73
2021/01/03 09:30:26;;;;;;;;;30.50;29.25;;;;;10.33;67.79;102945.91;4366977;32;13021;-73
2021/01/03 09:33:26;;;;;;;;;33.75;32.50;;;;;10.81;71.72;102943.69;4370431;32;12403;-73
2021/01/03 09:36:34;;;;;;;;;31.25;31.25;;;;;11.41;72.61;102933.62;4365482;32;12349;-74
2021/01/03 09:39:48;;;;;;;;;35.00;35.00;;;;;11.25;65.84;102940.31;4369512;32;12449;-73
2021/01/03 09:43:21;;;;;;;;;36.00;35.00;;;;;11.47;74.64;102926.13;4366067;32;12488;-73
2021/01/03 09:46:02;;;;;;;;;22.00;20.75;;;;;12.11;72.71;102928.88;4368162;32;12398;-74
2021/01/03 09:49:18;;;;;;;;;24.25;24.25;;;;;12.18;71.12;102928.56;4369713;32;12013;-73
2021/01/03 09:52:03;;;;;;;;;28.25;28.25;;;;;12.10;69.27;102932.75;4382149;32;11784;-74
2021/01/03 09:55:02;;;;;;;;;30.50;30.50;;;;;11.44;60.40;102926.69;4371319;32;12015;-73
2021/01/03 09:57:53;;;;;;;;;28.75;28.75;;;;;11.62;64.51;102923.28;4359605;32;12153;-73
2021/01/03 10:00:52;;;;;;;;;32.00;32.00;;;;;11.54;67.13;102923.88;4355752;32;12075;-74
2021/01/03 10:03:48;;;;;;;;;29.50;29.50;;;;;11.37;64.10;102922.28;4362403;32;12189;-73
2021/01/03 10:06:47;;;;;;;;;23.25;22.75;;;;;10.76;61.10;102924.34;4372943;32;12363;-73
2021/01/03 10:09:51;;;;;;;;;30.50;28.50;;;;;11.35;68.80;102918.13;4363658;32;12081;-73
2021/01/03 10:12:41;;;;;;;;;34.25;33.75;;;;;11.18;62.93;102906.53;4373561;32;12372;-73
2021/01/03 10:15:31;;;;;;;;;32.00;32.00;;;;;11.26;59.97;102919.81;4362768;32;12029;-73
2021/01/03 10:18:13;;;;;;;;;26.50;26.00;;;;;11.79;71.39;102904.34;4366337;32;13085;-74
2021/01/03 10:20:50;;;;;;;;;21.25;21.25;;;;;11.19;60.71;102909.03;4368269;32;12377;-74
2021/01/03 10:23:39;;;;;;;;;19.75;19.75;;;;;11.02;60.17;102914.06;4367407;32;12111;-73
2021/01/03 10:26:32;;;;;;;;;30.25;30.25;;;;;10.81;60.66;102903.03;4373906;32;11928;-73
2021/01/03 10:29:28;;;;;;;;;20.50;20.50;;;;;11.44;68.80;102899.00;4369518;32;12407;-73
2021/01/03 10:31:55;;;;;;;;;29.75;29.25;;;;;11.72;66.07;102903.81;4370304;32;12335;-73
2021/01/03 10:34:51;;;;;;;;;25.75;25.75;;;;;11.46;66.00;102902.28;4367232;32;11957;-74
2021/01/03 10:37:49;;;;;;;;;19.50;19.00;;;;;11.85;60.61;102897.69;4369666;32;12066;-73
2021/01/03 10:40:45;;;;;;;;;25.25;25.25;;;;;10.95;58.16;102897.72;4362863;32;11586;-74
2021/01/03 10:43:12;;;;;;;;;30.00;30.00;;;;;10.93;63.12;102894.41;4373452;32;12343;-72
2021/01/03 10:45:55;;;;;;;;;30.25;30.25;;;;;10.77;60.62;102890.00;4367487;32;12348;-73
2021/01/03 10:48:40;;;;;;;;;28.50;28.50;;;;;11.79;69.04;102879.38;4370668;32;12351;-73
2021/01/03 10:51:42;;;;;;;;;28.25;26.00;;;;;11.81;63.13;102876.34;4372479;32;12063;-73
2021/01/03 10:54:12;;;;;;;;;25.50;25.00;;;;;11.77;63.83;102875.25;4368837;32;11697;-72
2021/01/03 10:56:46;;;;;;;;;24.75;24.75;;;;;11.35;62.47;102873.81;4368076;32;11975;-73
2021/01/03 10:59:14;;;;;;;;;26.50;25.75;;;;;11.03;59.04;102874.16;4372578;32;11756;-73
2021/01/03 11:01:43;;;;;;;;;29.50;25.75;;;;;11.29;65.31;102864.69;4369440;32;11767;-73
2021/01/03 11:04:39;;;;;;;;;24.50;24.50;;;;;11.58;63.75;102867.59;4361286;32;11942;-74
2021/01/03 11:07:34;;;;;;;;;29.25;29.25;;;;;11.22;59.59;102864.16;4355967;32;11947;-74
2021/01/03 11:10:31;;;;;;;;;26.75;26.75;;;;;11.48;65.86;102872.34;4365384;32;12443;-72
2021/01/03 11:13:26;;;;;;;;;29.50;29.50;;;;;11.20;61.18;102866.38;4355003;32;11787;-74
2021/01/03 11:16:30;;;;;;;;;25.75;24.75;;;;;11.31;65.55;102868.00;4369462;32;12374;-75
2021/01/03 11:18:57;;;;;;;;;26.00;26.00;;;;;11.27;63.10;102861.38;4369388;32;12337;-73
2021/01/03 11:21:25;;;;;;;;;22.75;22.75;;;;;11.47;66.39;102871.53;4357823;32;11776;-73
2021/01/03 11:23:52;;;;;;;;;23.50;23.50;;;;;11.20;61.05;102866.38;4341224;32;12640;-74
2021/01/03 11:26:48;;;;;;;;;27.00;27.00;;;;;11.07;62.41;102867.81;4373226;32;12009;-73
2021/01/03 11:29:44;;;;;;;;;27.75;27.75;;;;;10.95;64.66;102863.66;4365667;32;12483;-73
2021/01/03 11:32:42;;;;;;;;;25.25;24.75;;;;;10.28;61.39;102874.00;4356683;32;12407;-74
2021/01/03 11:35:38;;;;;;;;;29.75;28.50;;;;;10.70;64.66;102876.44;4372392;32;12418;-74
2021/01/03 11:38:33;;;;;;;;;26.00;26.00;;;;;10.78;63.24;102870.34;4357283;32;12425;-73
2021/01/03 11:41:03;;;;;;;;;28.75;28.25;;;;;11.24;62.24;102870.22;4359758;32;12392;-74
2021/01/03 11:43:59;;;;;;;;;29.25;27.75;;;;;10.75;61.58;102870.91;4372126;32;12341;-75
2021/01/03 11:47:04;;;;;;;;;28.25;28.25;;;;;10.60;59.44;102864.59;4372005;32;12410;-75
2021/01/03 11:49:47;;;;;;;;;25.50;24.50;;;;;10.00;60.83;102864.25;4367339;32;12350;-77
2021/01/03 11:52:43;;;;;;;;;29.00;26.50;;;;;9.28;62.72;102852.16;4345757;32;12370;-76
2021/01/03 11:55:38;;;;;;;;;32.00;31.75;;;;;8.98;64.34;102854.78;4359088;32;12484;-76
2021/01/03 11:58:06;;;;;;;;;30.00;29.00;;;;;9.12;63.73;102854.03;4373738;32;12426;-75
2021/01/03 12:01:02;;;;;;;;;26.75;26.75;;;;;8.95;64.26;102858.06;4364454;32;12423;-75
2021/01/03 12:03:58;;;;;;;;;28.75;28.75;;;;;8.57;65.95;102844.28;4354666;32;12451;-76
2021/01/03 12:07:04;;;;;;;;;30.75;29.75;;;;;8.93;65.37;102846.47;4368510;32;12402;-76
2021/01/03 12:09:37;;;;;;;;;25.50;24.25;;;;;8.81;66.22;102841.13;4372996;32;12394;-76
2021/01/03 12:12:10;;;;;;;;;28.00;28.00;;;;;8.40;66.50;102849.12;4356997;32;12367;-76
2021/01/03 12:15:07;;;;;;;;;39.75;38.00;;;;;8.40;66.67;102843.63;4372796;32;12524;-74
2021/01/03 12:17:35;;;;;;;;;29.25;29.25;;;;;8.56;66.54;102842.63;4369171;32;12406;-75
2021/01/03 12:20:25;;;;;;;;;25.00;21.00;;;;;8.32;66.56;102839.38;4368698;32;12394;-75
2021/01/03 12:23:21;;;;;;;;;33.25;32.00;;;;;8.56;65.81;102847.31;4365813;32;12522;-75
2021/01/03 12:26:16;;;;;;;;;32.25;30.75;;;;;8.23;66.01;102845.66;4373131;32;12548;-74
2021/01/03 12:29:04;;;;;;;;;22.50;22.50;;;;;8.34;66.52;102836.37;4368102;32;12488;-75
2021/01/03 12:31:35;;;;;;;;;34.25;33.25;;;;;8.20;66.83;102840.66;4373303;32;12367;-77
2021/01/03 12:34:03;;;;;;;;;37.25;35.00;;;;;8.16;67.03;102842.28;4375572;32;12391;-77
2021/01/03 12:36:45;;;;;;;;;42.25;40.25;;;;;8.34;66.76;102836.37;4375031;32;12431;-78
2021/01/03 12:39:14;;;;;;;;;38.50;36.50;;;;;7.98;68.29;102830.56;4374317;32;12417;-78
2021/01/03 12:42:16;;;;;;;;;33.00;33.00;;;;;8.39;66.68;102838.38;4376935;32;12436;-77
2021/01/03 12:44:43;;;;;;;;;40.50;36.75;;;;;8.08;67.47;102829.81;4375097;32;12410;-77
2021/01/03 12:47:12;;;;;;;;;34.00;31.25;;;;;8.36;66.96;102834.22;4375766;32;12435;-78
2021/01/03 12:49:46;;;;;;;;;42.00;38.25;;;;;8.08;67.71;102833.41;4375550;32;12602;-78
2021/01/03 12:52:15;;;;;;;;;31.00;31.00;;;;;8.26;67.37;102843.19;4362359;32;12405;-78
2021/01/03 12:55:11;;;;;;;;;36.00;34.75;;;;;8.22;67.39;102839.31;4359579;32;12400;-77
2021/01/03 12:57:37;;;;;;;;;37.25;32.50;;;;;7.99;68.22;102832.22;4360506;32;12347;-77
2021/01/03 13:00:05;;;;;;;;;40.25;38.75;;;;;8.29;67.81;102836.34;4359728;33;12343;-77
2021/01/03 13:03:01;;;;;;;;;44.50;41.50;;;;;8.13;68.67;102834.53;4371265;32;12577;-78